Campanya meteocatpedra

Dades EMA l'Ametlla de Mar

?
?
Resum diari
Dades diàries de l'estació meteorològica
Temperatura mitjana 10.1 °C
Temperatura màxima 15.1 °C 14:50 TU
Temperatura mínima 4.5 °C 2:42 TU
Humitat relativa mitjana 77%
Precipitació acumulada 0.4 mm
Ratxa màxima del vent (2 m) 22.0 km/h - 155º 16:32 TU
Irradiació solar global 17.4 MJ/m2

El tram horari està expressat en Temps Universal (TU). Cal sumar una hora en horari d'hivern i dues en horari d'estiu per passar a l'hora oficial.

l'Ametlla de Mar

Metadades estació meteorol´gica
Municipi L'Ametlla de Mar
Comarca Baix Ebre
Altitud 93 m
Data alta 29.08.1995
Estat actual Operativa
Dades de període
Període
TU
TM
°C
TX
°C
TN
°C
HRM
%
PPT
mm
VVM (2 m)
km/h
DVM (2 m)
graus
VVX (2 m)
km/h
RS
W/m2
00:00 - 00:30 5.2 5.3 4.9 92 0.2 6.8 310 19.4 0
00:30 - 01:00 4.8 4.9 4.7 92 0.1 6.1 308 15.5 0
01:00 - 01:30 4.6 4.7 4.5 92 0.1 4.7 296 12.6 0
01:30 - 02:00 4.6 4.7 4.6 93 0.0 5.4 279 14.0 0
02:00 - 02:30 4.6 4.7 4.5 93 0.0 6.8 241 17.3 0
02:30 - 03:00 4.6 4.7 4.5 92 0.0 4.7 304 15.5 0
03:00 - 03:30 4.9 5.0 4.7 91 0.0 3.2 311 10.4 0
03:30 - 04:00 5.0 5.1 4.9 91 0.0 4.0 299 11.5 0
04:00 - 04:30 5.0 5.1 5.0 91 0.0 5.0 284 12.6 0
04:30 - 05:00 4.9 5.0 4.8 91 0.0 5.0 288 14.4 0
05:00 - 05:30 4.9 5.0 4.8 91 0.0 5.0 289 14.8 0
05:30 - 06:00 4.7 4.8 4.6 92 0.0 4.0 291 11.5 2
06:00 - 06:30 4.7 4.8 4.6 92 0.0 3.6 285 8.6 22
06:30 - 07:00 5.1 5.7 4.8 92 0.0 2.5 279 8.3 73
07:00 - 07:30 7.0 8.8 5.8 88 0.0 2.5 302 6.1 169
07:30 - 08:00 9.7 10.5 8.9 75 0.0 3.2 329 8.6 267
08:00 - 08:30 11.1 11.7 10.5 66 0.0 4.0 325 11.9 345
08:30 - 09:00 12.2 12.5 11.7 61 0.0 3.2 341 10.4 449
09:00 - 09:30 13.0 13.5 12.3 56 0.0 4.0 115 13.3 525
09:30 - 10:00 12.7 13.1 12.2 64 0.0 7.9 95 15.5 609
10:00 - 10:30 13.0 13.5 12.5 63 0.0 7.9 97 16.6 677
10:30 - 11:00 12.9 13.2 12.7 64 0.0 9.4 77 16.6 749
11:00 - 11:30 13.4 13.8 13.0 62 0.0 8.3 93 16.9 803
11:30 - 12:00 13.5 14.0 12.7 64 0.0 7.9 100 18.4 715
12:00 - 12:30 13.0 13.6 12.7 70 0.0 7.6 95 15.5 497
12:30 - 13:00 12.7 12.9 12.5 74 0.0 6.8 98 13.7 355
13:00 - 13:30 13.4 13.8 12.7 73 0.0 6.8 86 15.5 600
13:30 - 14:00 13.6 13.9 13.1 64 0.0 6.5 96 14.8 331
14:00 - 14:30 13.7 14.1 13.1 63 0.0 6.5 64 14.4 492
14:30 - 15:00 14.7 15.1 14.0 55 0.0 6.1 74 15.8 630
15:00 - 15:30 14.8 15.1 14.4 55 0.0 7.9 89 19.1 522
15:30 - 16:00 14.6 14.8 14.2 61 0.0 8.6 83 17.3 438
16:00 - 16:30 13.8 14.4 13.6 63 0.0 8.6 97 19.4 176
16:30 - 17:00 13.8 14.2 13.5 60 0.0 8.6 170 22.0 111
17:00 - 17:30 13.2 13.4 13.0 65 0.0 6.5 168 17.3 54
17:30 - 18:00 12.9 13.0 12.7 68 0.0 4.3 158 10.8 27
18:00 - 18:30 12.6 12.8 12.3 71 0.0 3.2 130 8.6 4
18:30 - 19:00 12.3 12.4 12.1 76 0.0 2.9 114 8.3 0
19:00 - 19:30 11.9 12.1 11.8 81 0.0 2.9 82 6.1 0
19:30 - 20:00 11.4 11.8 11.3 83 0.0 4.0 50 7.6 0
20:00 - 20:30 11.1 11.4 10.9 85 0.0 3.6 54 7.2 0
20:30 - 21:00 10.6 10.9 10.2 87 0.0 3.6 68 7.9 0
21:00 - 21:30 10.9 11.3 10.6 88 0.0 2.9 39 8.3 0
21:30 - 22:00 11.0 11.3 10.6 87 0.0 1.8 73 5.0 0
22:00 - 22:30 10.7 10.9 10.5 88 0.0 1.8 53 5.8 0
22:30 - 23:00 10.5 10.6 10.3 90 0.0 4.0 57 9.7 0
23:00 - 23:30 (s/d) (s/d) (s/d) (s/d) (s/d) (s/d) (s/d) (s/d) (s/d)

Les dades en taronja només han passat un control de qualitat automàtic. Resta pendent la seva validació definitiva.